createdAt,value
2023-04-19T00:01:34.069Z,49.56
2023-04-19T00:04:05.248Z,51.17
2023-04-19T00:06:35.279Z,49.82
2023-04-19T00:09:05.045Z,50.41
2023-04-19T00:11:34.269Z,51.28
2023-04-19T00:14:03.882Z,51.33
2023-04-19T00:16:33.052Z,50.39
2023-04-19T00:19:03.969Z,49.15
2023-04-19T00:21:33.259Z,48.93
2023-04-19T00:24:04.833Z,48.47
2023-04-19T00:26:34.068Z,48.09
2023-04-19T00:29:03.841Z,47.38
2023-04-19T00:31:32.900Z,47.64
2023-04-19T00:34:03.874Z,48.17
2023-04-19T00:36:33.093Z,48.15
2023-04-19T00:39:02.611Z,48.42
2023-04-19T00:41:31.922Z,49.02
2023-04-19T00:44:01.292Z,48.33
2023-04-19T00:46:30.770Z,48.59
2023-04-19T00:49:03.977Z,48.08
2023-04-19T00:51:35.535Z,47.52
2023-04-19T00:54:07.285Z,47.53
2023-04-19T00:56:37.087Z,47.34
2023-04-19T00:59:06.769Z,47.34
2023-04-19T01:01:36.015Z,47.84
2023-04-19T01:04:07.348Z,47.12
2023-04-19T01:06:36.992Z,47.42
2023-04-19T01:09:06.781Z,47.90
2023-04-19T01:11:36.288Z,49.10
2023-04-19T01:14:05.739Z,47.83
2023-04-19T01:16:36.533Z,47.49
2023-04-19T01:19:07.417Z,47.06
2023-04-19T01:21:39.621Z,47.29
2023-04-19T01:24:10.919Z,47.66
2023-04-19T01:26:40.377Z,47.47
2023-04-19T01:29:09.835Z,47.79
2023-04-19T01:31:40.606Z,48.33
2023-04-19T01:34:10.070Z,48.02
2023-04-19T01:36:41.099Z,47.89
2023-04-19T01:39:12.096Z,48.34
2023-04-19T01:41:42.459Z,48.79
2023-04-19T01:44:12.919Z,48.58
2023-04-19T01:46:42.825Z,47.65
2023-04-19T01:49:12.499Z,47.96
2023-04-19T01:51:41.764Z,47.67
2023-04-19T01:54:12.774Z,48.56
2023-04-19T01:56:42.031Z,49.05
2023-04-19T01:59:12.642Z,49.44
2023-04-19T02:01:42.189Z,48.99
2023-04-19T02:04:11.694Z,49.03
2023-04-19T02:06:40.795Z,48.91
2023-04-19T02:09:11.713Z,49.39
2023-04-19T02:11:44.558Z,49.97
2023-04-19T02:14:14.391Z,48.73
2023-04-19T02:16:44.723Z,49.97
2023-04-19T02:19:14.912Z,48.68
2023-04-19T02:21:44.024Z,49.33
2023-04-19T02:24:18.478Z,50.42
2023-04-19T02:26:47.635Z,50.36
2023-04-19T02:29:18.127Z,49.87
2023-04-19T02:36:20.038Z,50.57
2023-04-19T02:38:49.493Z,50.20
2023-04-19T02:41:20.362Z,50.97
2023-04-19T02:43:49.998Z,51.24
2023-04-19T02:46:19.774Z,51.56
2023-04-19T02:48:49.320Z,50.83
2023-04-19T02:51:18.826Z,50.47
2023-04-19T02:53:48.673Z,50.43
2023-04-19T02:56:19.228Z,50.43
2023-04-19T02:58:49.800Z,50.93
2023-04-19T03:01:19.202Z,50.40
2023-04-19T03:03:48.831Z,50.29
2023-04-19T03:06:18.074Z,49.99
2023-04-19T03:08:47.843Z,49.73
2023-04-19T03:11:21.253Z,50.02
2023-04-19T03:13:50.650Z,50.98
2023-04-19T03:16:20.633Z,50.48
2023-04-19T03:18:50.587Z,50.40
2023-04-19T03:21:27.193Z,51.34
2023-04-19T03:23:56.963Z,50.64
2023-04-19T03:26:28.782Z,49.99
2023-04-19T03:29:00.000Z,50.26
2023-04-19T03:31:44.851Z,49.94
2023-04-19T03:34:15.891Z,48.76
2023-04-19T03:36:48.074Z,49.06
2023-04-19T03:39:17.480Z,49.82
2023-04-19T03:41:51.812Z,49.79
2023-04-19T03:44:29.007Z,49.22
2023-04-19T03:46:58.146Z,49.12
2023-04-19T03:49:31.577Z,49.07
2023-04-19T03:52:06.971Z,49.38
2023-04-19T03:54:37.363Z,49.10
2023-04-19T03:57:13.157Z,48.00
2023-04-19T03:59:43.036Z,49.57
2023-04-19T04:02:12.669Z,49.03
2023-04-19T04:04:42.487Z,50.01
2023-04-19T04:07:11.924Z,49.08
2023-04-19T04:09:41.852Z,48.76
2023-04-19T04:12:13.314Z,48.55
2023-04-19T04:14:43.153Z,48.09
2023-04-19T04:17:14.184Z,48.21
2023-04-19T04:19:43.785Z,47.96
2023-04-19T04:22:13.883Z,46.91
2023-04-19T04:24:45.208Z,46.87
2023-04-19T04:27:28.391Z,47.66
2023-04-19T04:29:58.790Z,47.88
2023-04-19T04:32:28.314Z,47.28
2023-04-19T04:35:02.186Z,47.36
2023-04-19T04:37:41.378Z,46.92
2023-04-19T04:40:12.315Z,45.63
2023-04-19T04:42:42.883Z,46.12
2023-04-19T04:45:13.145Z,46.03
2023-04-19T04:47:46.330Z,47.08
2023-04-19T04:50:16.967Z,46.10
2023-04-19T04:52:46.556Z,46.00
2023-04-19T04:55:30.326Z,45.08
2023-04-19T04:58:01.461Z,45.32
2023-04-19T05:00:40.112Z,45.29
2023-04-19T05:03:11.765Z,44.89
2023-04-19T05:05:48.752Z,45.10
2023-04-19T05:08:19.335Z,45.27
2023-04-19T05:10:50.014Z,45.15
2023-04-19T05:13:20.933Z,46.30
2023-04-19T05:20:25.146Z,45.54
2023-04-19T05:23:03.562Z,45.45
2023-04-19T05:25:35.248Z,46.19
2023-04-19T05:28:05.808Z,46.61
2023-04-19T05:30:45.327Z,45.88
2023-04-19T05:33:14.911Z,45.59
2023-04-19T05:35:44.900Z,45.94
2023-04-19T05:38:14.364Z,45.57
2023-04-19T05:40:43.702Z,45.56
2023-04-19T05:43:13.213Z,44.38
2023-04-19T05:45:44.229Z,44.02
2023-04-19T05:48:13.698Z,43.87
2023-04-19T05:51:12.404Z,44.42
2023-04-19T05:53:55.866Z,44.03
2023-04-19T05:56:27.339Z,44.15
2023-04-19T05:58:56.932Z,44.83
2023-04-19T06:01:27.572Z,43.18
2023-04-19T06:03:57.655Z,43.34
2023-04-19T06:06:27.794Z,43.09
2023-04-19T06:08:57.755Z,42.48
2023-04-19T06:11:38.299Z,42.83
2023-04-19T06:14:08.717Z,42.26
2023-04-19T06:16:39.640Z,41.96
2023-04-19T06:19:10.074Z,42.65
2023-04-19T06:21:39.300Z,44.23
2023-04-19T06:24:09.307Z,42.46
2023-04-19T06:26:38.430Z,41.89
2023-04-19T06:29:07.922Z,42.62
2023-04-19T06:31:38.483Z,42.02
2023-04-19T06:34:08.035Z,41.78
2023-04-19T06:36:37.462Z,41.60
2023-04-19T06:43:42.782Z,41.81
2023-04-19T06:46:14.071Z,41.68
2023-04-19T06:48:45.018Z,41.72
2023-04-19T06:51:14.646Z,42.32
2023-04-19T06:53:44.915Z,43.13
2023-04-19T06:56:15.082Z,42.22
2023-04-19T06:58:44.339Z,43.04
2023-04-19T07:01:14.174Z,43.44
2023-04-19T07:03:47.100Z,43.78
2023-04-19T07:06:16.895Z,43.55
2023-04-19T07:08:50.185Z,42.35
2023-04-19T07:11:21.948Z,41.24
2023-04-19T07:13:52.505Z,41.07
2023-04-19T07:16:22.372Z,41.15
2023-04-19T07:18:53.126Z,41.41
2023-04-19T07:21:22.774Z,41.31
2023-04-19T07:23:51.990Z,41.11
2023-04-19T07:26:21.592Z,40.38
2023-04-19T07:28:50.786Z,41.37
2023-04-19T07:31:21.456Z,40.23
2023-04-19T07:33:52.559Z,41.48
2023-04-19T07:37:37.161Z,40.75
2023-04-19T07:40:09.389Z,41.69
2023-04-19T07:42:38.541Z,40.38
2023-04-19T07:45:15.163Z,40.74
2023-04-19T07:47:45.217Z,40.67
2023-04-19T07:50:16.282Z,40.61
2023-04-19T07:52:45.697Z,40.79
2023-04-19T07:55:15.335Z,40.28
2023-04-19T07:57:48.121Z,40.43
2023-04-19T08:00:18.680Z,39.36
2023-04-19T08:11:36.566Z,40.32
2023-04-19T08:14:40.564Z,39.13
2023-04-19T08:17:26.740Z,39.66
2023-04-19T08:19:57.384Z,39.56
2023-04-19T08:22:27.111Z,40.08
2023-04-19T08:24:56.305Z,38.88
2023-04-19T08:27:54.263Z,40.48
2023-04-19T08:30:24.764Z,40.75
2023-04-19T08:32:56.827Z,40.18
2023-04-19T08:35:27.018Z,39.99
2023-04-19T08:37:56.573Z,40.21
2023-04-19T08:40:26.185Z,40.70
2023-04-19T08:42:58.964Z,42.65
2023-04-19T08:59:19.925Z,46.59
2023-04-19T09:01:50.264Z,46.87
2023-04-19T09:04:34.551Z,47.08
2023-04-19T09:07:05.492Z,47.26
2023-04-19T09:09:43.123Z,46.95
2023-04-19T09:12:21.357Z,46.79
2023-04-19T09:23:19.746Z,47.97
2023-04-19T09:26:19.449Z,46.68
2023-04-19T09:28:58.585Z,47.92
2023-04-19T09:31:47.972Z,49.55
2023-04-19T09:34:21.768Z,50.63
2023-04-19T09:37:00.574Z,49.70
2023-04-19T09:39:40.079Z,49.42
2023-04-19T09:42:09.341Z,49.38
2023-04-19T09:47:25.177Z,50.29
2023-04-19T09:50:22.021Z,50.62
2023-04-19T09:52:53.477Z,51.97
2023-04-19T09:55:27.901Z,51.39
2023-04-19T09:57:58.544Z,52.28
2023-04-19T10:00:33.425Z,53.50
2023-04-19T10:03:10.691Z,53.34
2023-04-19T10:05:41.796Z,52.47
2023-04-19T10:08:13.163Z,52.43
2023-04-19T10:10:46.610Z,52.09
2023-04-19T10:13:25.676Z,52.93
2023-04-19T10:16:04.540Z,52.98
2023-04-19T10:23:16.620Z,54.00
2023-04-19T10:25:50.444Z,54.46
2023-04-19T10:28:19.785Z,55.07
2023-04-19T10:30:56.855Z,54.18
2023-04-19T10:33:31.178Z,53.52
2023-04-19T10:36:01.154Z,54.07
2023-04-19T10:38:41.605Z,53.62
2023-04-19T10:41:17.112Z,54.04
2023-04-19T10:44:40.995Z,53.24
2023-04-19T10:47:14.844Z,54.13
2023-04-19T10:49:47.233Z,53.20
2023-04-19T10:52:29.787Z,54.06
2023-04-19T10:54:59.242Z,54.70
2023-04-19T10:57:30.524Z,53.49
2023-04-19T11:00:19.784Z,54.70
2023-04-19T11:02:49.494Z,54.32
2023-04-19T11:05:20.387Z,53.66
2023-04-19T11:07:50.104Z,53.98
2023-04-19T11:10:31.787Z,53.94
2023-04-19T11:13:02.741Z,52.44
2023-04-19T11:15:31.879Z,52.17
2023-04-19T11:18:11.994Z,52.47
2023-04-19T11:20:45.086Z,52.30
2023-04-19T11:23:18.989Z,51.51
2023-04-19T11:25:52.743Z,50.78
2023-04-19T11:28:24.299Z,50.75
2023-04-19T11:30:55.427Z,50.72
2023-04-19T11:33:25.909Z,50.35
2023-04-19T11:35:55.183Z,50.46
2023-04-19T11:38:24.506Z,50.30
2023-04-19T11:41:01.532Z,49.97
2023-04-19T11:43:36.632Z,50.09
2023-04-19T11:46:10.524Z,50.58
2023-04-19T11:48:40.834Z,50.17
2023-04-19T11:51:10.671Z,50.79
2023-04-19T11:53:42.324Z,50.15
2023-04-19T11:56:11.723Z,50.44
2023-04-19T11:58:45.593Z,49.92
2023-04-19T12:01:16.586Z,49.24
2023-04-19T12:03:48.739Z,49.66
2023-04-19T12:06:20.284Z,49.13
2023-04-19T12:08:51.507Z,48.64
2023-04-19T12:11:24.406Z,49.88
2023-04-19T12:14:10.999Z,48.14
2023-04-19T12:16:40.504Z,48.02
2023-04-19T12:19:14.337Z,46.77
2023-04-19T12:21:44.399Z,45.30
2023-04-19T12:25:27.759Z,45.08
2023-04-19T12:27:58.160Z,46.68
2023-04-19T12:30:29.157Z,45.14
2023-04-19T12:32:59.981Z,45.97
2023-04-19T12:35:29.892Z,43.97
2023-04-19T12:38:01.023Z,42.98
2023-04-19T12:40:30.740Z,42.39
2023-04-19T12:43:00.329Z,43.11
2023-04-19T12:45:31.886Z,43.82
2023-04-19T12:48:02.371Z,44.43
2023-04-19T12:50:31.802Z,44.91
2023-04-19T12:53:01.450Z,44.34
2023-04-19T12:55:30.649Z,44.33
2023-04-19T12:58:00.220Z,43.09
2023-04-19T13:00:31.250Z,42.41
2023-04-19T13:03:01.119Z,42.00
2023-04-19T13:05:30.558Z,41.63
2023-04-19T13:08:00.302Z,41.70
2023-04-19T13:10:29.527Z,40.80
2023-04-19T13:12:59.336Z,40.46
2023-04-19T13:15:29.960Z,41.56
2023-04-19T13:17:59.511Z,42.21
2023-04-19T13:20:29.469Z,43.10
2023-04-19T13:22:59.258Z,42.46
2023-04-19T13:25:28.544Z,42.57
2023-04-19T13:27:57.955Z,42.74
2023-04-19T13:30:27.302Z,42.28
2023-04-19T13:32:58.427Z,42.55
2023-04-19T13:35:27.734Z,42.03
2023-04-19T13:37:57.283Z,42.00
2023-04-19T13:40:26.448Z,43.35
2023-04-19T13:42:56.868Z,43.31
2023-04-19T13:49:59.383Z,43.19
2023-04-19T13:52:29.039Z,43.14
2023-04-19T13:54:58.321Z,43.94
2023-04-19T13:57:27.898Z,43.40
2023-04-19T13:59:57.103Z,44.09
2023-04-19T14:02:27.065Z,43.53
2023-04-19T14:04:59.799Z,43.83
2023-04-19T14:07:29.834Z,44.08
2023-04-19T14:09:59.452Z,44.01
2023-04-19T14:12:28.937Z,43.31
2023-04-19T14:14:58.140Z,43.15
2023-04-19T14:17:27.853Z,43.10
2023-04-19T14:19:59.038Z,43.54
2023-04-19T14:22:28.707Z,43.17
2023-04-19T14:24:57.963Z,42.67
2023-04-19T14:27:27.730Z,42.71
2023-04-19T14:34:32.661Z,43.45
2023-04-19T14:37:04.840Z,41.49
2023-04-19T14:39:33.953Z,42.47
2023-04-19T14:42:03.560Z,41.20
2023-04-19T14:44:32.887Z,40.95
2023-04-19T14:47:02.586Z,41.59
2023-04-19T14:49:31.829Z,40.58
2023-04-19T14:52:01.430Z,40.22
2023-04-19T14:55:24.978Z,37.97
2023-04-19T14:57:56.407Z,37.10
2023-04-19T15:00:26.092Z,35.70
2023-04-19T15:02:55.620Z,33.06
2023-04-19T15:05:27.677Z,30.42
2023-04-19T15:07:57.478Z,29.57
2023-04-19T15:10:26.675Z,28.76
2023-04-19T15:12:58.098Z,28.70
2023-04-19T15:15:27.590Z,28.14
2023-04-19T15:17:57.976Z,29.30
2023-04-19T15:20:27.333Z,26.77
2023-04-19T15:22:56.993Z,27.63
2023-04-19T15:25:26.138Z,29.30
2023-04-19T15:27:57.282Z,28.16
2023-04-19T15:30:26.518Z,28.73
2023-04-19T15:32:56.292Z,30.83
2023-04-19T15:35:25.508Z,30.72
2023-04-19T15:37:55.130Z,31.13
2023-04-19T15:40:25.027Z,32.23
2023-04-19T15:42:55.742Z,29.96
2023-04-19T15:45:26.304Z,30.70
2023-04-19T15:47:55.883Z,28.93
2023-04-19T15:50:25.279Z,29.38
2023-04-19T15:52:54.683Z,28.81
2023-04-19T15:55:23.736Z,30.91
2023-04-19T15:57:53.168Z,30.42
2023-04-19T16:00:23.350Z,31.14
2023-04-19T16:02:54.546Z,31.94
2023-04-19T16:05:24.176Z,30.22
2023-04-19T16:08:04.104Z,31.75
2023-04-19T16:10:33.390Z,32.25
2023-04-19T16:13:04.078Z,32.07
2023-04-19T16:15:33.594Z,32.61
2023-04-19T16:18:04.707Z,33.09
2023-04-19T16:20:33.914Z,33.76
2023-04-19T16:23:03.893Z,33.81
2023-04-19T16:25:34.006Z,33.83
2023-04-19T16:28:03.367Z,34.13
2023-04-19T16:30:32.748Z,35.76
2023-04-19T16:33:03.351Z,36.93
2023-04-19T16:35:32.942Z,37.96
2023-04-19T16:38:04.446Z,39.39
2023-04-19T16:40:33.892Z,39.95
2023-04-19T16:43:03.230Z,39.28
2023-04-19T16:45:32.806Z,38.39
2023-04-19T16:48:03.907Z,38.39
2023-04-19T16:50:33.782Z,38.21
2023-04-19T16:53:02.809Z,38.15
2023-04-19T16:55:32.668Z,39.97
2023-04-19T16:58:02.025Z,39.57
2023-04-19T17:00:31.509Z,39.62
2023-04-19T17:03:01.004Z,38.99
2023-04-19T17:05:32.101Z,39.07
2023-04-19T17:08:01.342Z,40.61
2023-04-19T17:10:30.850Z,40.42
2023-04-19T17:13:00.236Z,40.62
2023-04-19T17:15:29.875Z,40.55
2023-04-19T17:17:59.265Z,40.61
2023-04-19T17:20:28.932Z,41.14
2023-04-19T17:22:59.787Z,41.79
2023-04-19T17:25:29.914Z,41.52
2023-04-19T17:27:59.256Z,42.61
2023-04-19T17:30:28.946Z,42.87
2023-04-19T17:32:58.265Z,42.72
2023-04-19T17:35:28.054Z,42.22
2023-04-19T17:37:58.783Z,43.62
2023-04-19T17:40:29.441Z,42.12
2023-04-19T17:42:58.885Z,42.16
2023-04-19T17:45:28.329Z,41.67
2023-04-19T17:47:57.664Z,42.28
2023-04-19T17:50:27.547Z,42.78
2023-04-19T17:52:58.542Z,41.71
2023-04-19T17:59:41.264Z,43.21
2023-04-19T18:02:10.950Z,44.49
2023-04-19T18:04:44.599Z,44.51
2023-04-19T18:07:14.412Z,43.19
2023-04-19T18:09:45.212Z,43.21
2023-04-19T18:12:14.856Z,43.40
2023-04-19T18:14:44.112Z,43.34
2023-04-19T18:17:13.595Z,44.48
2023-04-19T18:19:42.793Z,44.12
2023-04-19T18:22:12.368Z,45.70
2023-04-19T18:24:43.830Z,45.50
2023-04-19T18:27:14.752Z,45.11
2023-04-19T18:29:44.076Z,44.11
2023-04-19T18:32:13.719Z,44.07
2023-04-19T18:34:43.062Z,44.51
2023-04-19T18:37:17.192Z,44.76
2023-04-19T18:39:46.634Z,43.54
2023-04-19T18:42:17.559Z,43.96
2023-04-19T18:44:53.595Z,43.90
2023-04-19T18:47:26.545Z,43.67
2023-04-19T18:50:03.443Z,43.27
2023-04-19T18:52:34.613Z,43.29
2023-04-19T18:55:04.141Z,43.37
2023-04-19T18:57:35.677Z,43.59
2023-04-19T19:00:11.135Z,43.40
2023-04-19T19:02:41.687Z,43.57
2023-04-19T19:05:13.801Z,43.73
2023-04-19T19:07:43.947Z,43.53
2023-04-19T19:12:47.228Z,43.71
2023-04-19T19:15:16.632Z,43.26
2023-04-19T19:17:49.859Z,44.85
2023-04-19T19:20:20.659Z,44.86
2023-04-19T19:22:51.456Z,44.85
2023-04-19T19:25:21.095Z,45.02
2023-04-19T19:30:29.642Z,45.72
2023-04-19T19:32:59.086Z,46.54
2023-04-19T19:35:28.537Z,46.45
2023-04-19T19:37:58.135Z,45.72
2023-04-19T19:40:31.136Z,45.97
2023-04-19T19:43:04.160Z,47.01
2023-04-19T19:45:33.876Z,46.13
2023-04-19T19:48:03.628Z,45.34
2023-04-19T19:53:05.658Z,46.31
2023-04-19T19:55:34.997Z,46.08
2023-04-19T20:00:46.259Z,47.24
2023-04-19T20:03:32.779Z,46.86
2023-04-19T20:08:43.998Z,47.76
2023-04-19T20:11:13.844Z,48.09
2023-04-19T20:13:45.859Z,48.14
2023-04-19T20:16:18.819Z,48.76
2023-04-19T20:18:49.348Z,49.07
2023-04-19T20:21:20.568Z,48.79
2023-04-19T20:23:50.465Z,48.29
2023-04-19T20:26:19.820Z,47.91
2023-04-19T20:28:53.035Z,51.14
2023-04-19T20:31:29.693Z,51.81
2023-04-19T20:33:59.970Z,49.69
2023-04-19T20:36:31.953Z,48.46
2023-04-19T20:39:06.582Z,47.93
2023-04-19T20:41:36.250Z,46.56
2023-04-19T20:44:07.613Z,45.33
2023-04-19T20:46:36.997Z,45.04
2023-04-19T20:49:06.903Z,45.70
2023-04-19T20:51:36.148Z,47.28
2023-04-19T20:54:05.841Z,47.54
2023-04-19T20:56:35.144Z,46.62
2023-04-19T20:59:06.193Z,46.86
2023-04-19T21:01:35.683Z,46.39
2023-04-19T21:04:05.585Z,46.76
2023-04-19T21:06:34.864Z,46.34
2023-04-19T21:09:04.406Z,46.83
2023-04-19T21:11:33.666Z,46.46
2023-04-19T21:14:03.096Z,47.15
2023-04-19T21:16:33.861Z,47.65
2023-04-19T21:19:03.666Z,47.13
2023-04-19T21:21:33.043Z,47.84
2023-04-19T21:24:02.595Z,47.09
2023-04-19T21:26:31.856Z,46.91
2023-04-19T21:29:01.447Z,46.88
2023-04-19T21:31:32.120Z,46.28
2023-04-19T21:34:02.378Z,46.51
2023-04-19T21:36:31.866Z,46.55
2023-04-19T21:39:01.577Z,47.55
2023-04-19T21:41:31.009Z,47.31
2023-04-19T21:44:00.848Z,47.15
2023-04-19T21:46:30.229Z,47.08
2023-04-19T21:49:01.139Z,46.89
2023-04-19T21:51:30.276Z,47.08
2023-04-19T21:53:59.757Z,45.95
2023-04-19T21:56:28.985Z,45.48
2023-04-19T21:58:58.791Z,45.31
2023-04-19T22:01:28.119Z,46.00
2023-04-19T22:03:58.887Z,46.19
2023-04-19T22:06:29.640Z,46.50
2023-04-19T22:09:00.491Z,46.88
2023-04-19T22:11:30.217Z,45.71
2023-04-19T22:13:59.813Z,45.89
2023-04-19T22:16:30.296Z,46.21
2023-04-19T22:19:00.063Z,47.48
2023-04-19T22:21:32.881Z,46.62
2023-04-19T22:24:02.329Z,46.48
2023-04-19T22:26:33.056Z,46.45
2023-04-19T22:29:02.626Z,46.52
2023-04-19T22:31:31.844Z,46.37
2023-04-19T22:34:01.471Z,46.91
2023-04-19T22:36:31.974Z,47.13
2023-04-19T22:39:01.727Z,48.06
2023-04-19T22:41:30.832Z,47.14
2023-04-19T22:44:00.557Z,46.62
2023-04-19T22:46:29.744Z,46.24
2023-04-19T22:48:59.258Z,47.84
2023-04-19T22:51:29.470Z,48.44
2023-04-19T22:54:00.793Z,48.68
2023-04-19T22:56:30.686Z,48.17
2023-04-19T22:59:00.139Z,48.33
2023-04-19T23:01:29.537Z,47.51
2023-04-19T23:03:59.293Z,48.04
2023-04-19T23:06:29.510Z,47.19
2023-04-19T23:09:02.207Z,47.61
2023-04-19T23:11:31.670Z,46.99
2023-04-19T23:14:01.859Z,46.52
2023-04-19T23:16:33.490Z,46.98
2023-04-19T23:19:02.983Z,46.93
2023-04-19T23:21:32.193Z,47.07
2023-04-19T23:24:03.002Z,47.28
2023-04-19T23:26:32.060Z,46.35
2023-04-19T23:29:01.592Z,46.42
2023-04-19T23:31:30.743Z,46.35
2023-04-19T23:34:00.325Z,46.48
2023-04-19T23:36:29.427Z,46.57
2023-04-19T23:38:58.986Z,46.24
2023-04-19T23:41:29.756Z,46.71
2023-04-19T23:43:59.090Z,47.46
2023-04-19T23:46:28.618Z,47.79
2023-04-19T23:48:58.190Z,46.76
2023-04-19T23:51:27.941Z,47.10
2023-04-19T23:53:57.408Z,46.83
2023-04-19T23:56:26.524Z,46.54
2023-04-19T23:58:57.590Z,47.69
